createdAt,value
2022-09-07T00:02:06.300Z,20.11
2022-09-07T00:04:33.257Z,20.12
2022-09-07T00:07:00.240Z,20.08
2022-09-07T00:09:27.370Z,20.06
2022-09-07T00:11:54.382Z,20.06
2022-09-07T00:14:21.500Z,20.06
2022-09-07T00:16:48.298Z,20.08
2022-09-07T00:19:15.251Z,20.08
2022-09-07T00:21:42.227Z,20.04
2022-09-07T00:24:09.117Z,20.00
2022-09-07T00:26:36.691Z,20.01
2022-09-07T00:29:04.479Z,19.96
2022-09-07T00:31:32.005Z,19.93
2022-09-07T00:34:00.750Z,19.92
2022-09-07T00:36:28.194Z,19.87
2022-09-07T00:38:55.212Z,19.86
2022-09-07T00:41:22.836Z,19.85
2022-09-07T00:43:55.087Z,19.83
2022-09-07T00:46:34.321Z,19.77
2022-09-07T00:49:09.171Z,19.76
2022-09-07T00:51:54.197Z,19.74
2022-09-07T00:54:25.513Z,19.70
2022-09-07T00:56:54.096Z,19.72
2022-09-07T00:59:27.379Z,19.76
2022-09-07T01:01:54.479Z,19.80
2022-09-07T01:04:22.792Z,19.78
2022-09-07T01:06:50.401Z,19.69
2022-09-07T01:09:20.638Z,19.63
2022-09-07T01:11:51.174Z,19.59
2022-09-07T01:14:29.039Z,19.63
2022-09-07T01:17:06.154Z,19.67
2022-09-07T01:19:57.754Z,19.70
2022-09-07T01:22:45.638Z,19.70
2022-09-07T01:25:15.207Z,19.71
2022-09-07T01:28:00.683Z,19.72
2022-09-07T01:30:29.610Z,19.69
2022-09-07T01:33:14.950Z,19.67
2022-09-07T01:35:44.915Z,19.63
2022-09-07T01:38:30.290Z,19.56
2022-09-07T01:41:23.146Z,19.49
2022-09-07T01:44:22.462Z,19.53
2022-09-07T01:47:05.707Z,19.50
2022-09-07T01:49:42.008Z,19.49
2022-09-07T01:52:32.242Z,19.46
2022-09-07T01:55:06.261Z,19.41
2022-09-07T01:57:40.522Z,19.32
2022-09-07T02:00:10.993Z,19.33
2022-09-07T02:02:52.960Z,19.34
2022-09-07T02:05:26.909Z,19.20
2022-09-07T02:08:07.023Z,19.15
2022-09-07T02:10:40.932Z,19.18
2022-09-07T02:13:16.803Z,19.18
2022-09-07T02:15:50.548Z,19.08
2022-09-07T02:18:19.907Z,19.00
2022-09-07T02:20:51.084Z,18.93
2022-09-07T02:23:26.201Z,18.89
2022-09-07T02:26:04.109Z,18.74
2022-09-07T02:28:34.371Z,18.73
2022-09-07T02:31:01.767Z,18.73
2022-09-07T02:33:29.111Z,18.64
2022-09-07T02:35:56.991Z,18.60
2022-09-07T02:38:25.527Z,18.60
2022-09-07T02:40:54.766Z,18.60
2022-09-07T02:43:23.977Z,18.64
2022-09-07T02:46:24.171Z,18.65
2022-09-07T02:49:26.537Z,18.67
2022-09-07T02:52:18.735Z,18.62
2022-09-07T02:55:03.759Z,18.62
2022-09-07T02:57:42.429Z,18.52
2022-09-07T03:00:18.258Z,18.50
2022-09-07T03:03:17.176Z,18.53
2022-09-07T03:05:58.731Z,18.47
2022-09-07T03:08:36.779Z,18.46
2022-09-07T03:11:07.481Z,18.48
2022-09-07T03:13:34.379Z,18.55
2022-09-07T03:16:01.363Z,18.55
2022-09-07T03:18:29.144Z,18.54
2022-09-07T03:20:56.329Z,18.57
2022-09-07T03:23:23.588Z,18.57
2022-09-07T03:25:50.791Z,18.57
2022-09-07T03:28:17.567Z,18.61
2022-09-07T03:30:47.327Z,18.60
2022-09-07T03:33:17.546Z,18.55
2022-09-07T03:35:45.539Z,18.56
2022-09-07T03:38:12.817Z,18.58
2022-09-07T03:40:40.147Z,18.60
2022-09-07T03:43:07.032Z,18.63
2022-09-07T03:45:33.831Z,18.60
2022-09-07T03:48:01.044Z,18.57
2022-09-07T03:50:29.206Z,18.50
2022-09-07T03:52:56.034Z,18.52
2022-09-07T03:55:22.948Z,18.59
2022-09-07T03:57:49.752Z,18.65
2022-09-07T04:00:16.889Z,18.65
2022-09-07T04:02:43.918Z,18.68
2022-09-07T04:05:11.670Z,18.69
2022-09-07T04:07:38.581Z,18.68
2022-09-07T04:10:05.806Z,18.62
2022-09-07T04:12:32.776Z,18.60
2022-09-07T04:14:59.538Z,18.62
2022-09-07T04:17:26.482Z,18.61
2022-09-07T04:19:53.266Z,18.57
2022-09-07T04:22:20.082Z,18.57
2022-09-07T04:24:47.033Z,18.57
2022-09-07T04:27:13.843Z,18.55
2022-09-07T04:29:40.709Z,18.59
2022-09-07T04:32:07.974Z,18.64
2022-09-07T04:34:35.759Z,18.64
2022-09-07T04:37:02.615Z,18.64
2022-09-07T04:39:29.924Z,18.60
2022-09-07T04:41:56.865Z,18.61
2022-09-07T04:44:23.711Z,18.64
2022-09-07T04:46:50.812Z,18.62
2022-09-07T04:49:18.251Z,18.60
2022-09-07T04:51:45.079Z,18.62
2022-09-07T04:54:11.997Z,18.60
2022-09-07T04:56:38.934Z,18.60
2022-09-07T04:59:05.782Z,18.55
2022-09-07T05:01:32.928Z,18.60
2022-09-07T05:04:01.335Z,18.61
2022-09-07T05:06:28.351Z,18.65
2022-09-07T05:08:55.335Z,18.66
2022-09-07T05:11:28.802Z,18.63
2022-09-07T05:14:00.283Z,18.63
2022-09-07T05:16:27.645Z,18.67
2022-09-07T05:19:00.026Z,18.67
2022-09-07T05:21:32.024Z,18.67
2022-09-07T05:24:00.462Z,18.71
2022-09-07T05:26:30.008Z,18.70
2022-09-07T05:31:46.443Z,18.74
2022-09-07T05:36:56.247Z,18.76
2022-09-07T05:39:23.558Z,18.82
2022-09-07T05:41:50.486Z,18.86
2022-09-07T05:47:04.431Z,18.91
2022-09-07T05:49:32.913Z,18.96
2022-09-07T05:51:59.773Z,18.98
2022-09-07T05:54:26.786Z,19.04
2022-09-07T05:56:53.766Z,19.05
2022-09-07T05:59:20.679Z,19.05
2022-09-07T06:01:47.569Z,19.03
2022-09-07T06:04:14.689Z,18.99
2022-09-07T06:06:41.529Z,19.02
2022-09-07T06:09:11.347Z,19.05
2022-09-07T06:11:38.726Z,19.09
2022-09-07T06:14:05.524Z,19.01
2022-09-07T06:16:34.399Z,18.96
2022-09-07T06:19:08.405Z,18.97
2022-09-07T06:21:37.259Z,18.96
2022-09-07T06:24:05.534Z,18.94
2022-09-07T06:26:32.849Z,18.93
2022-09-07T06:28:59.777Z,18.98
2022-09-07T06:31:28.522Z,19.03
2022-09-07T06:33:56.245Z,19.12
2022-09-07T06:36:27.307Z,19.22
2022-09-07T06:38:55.797Z,19.34
2022-09-07T06:44:17.811Z,19.35
2022-09-07T06:49:26.973Z,19.26
2022-09-07T06:51:55.029Z,19.21
2022-09-07T06:57:09.506Z,19.25
2022-09-07T06:59:37.372Z,19.24
2022-09-07T07:02:05.957Z,19.27
2022-09-07T07:04:37.747Z,19.33
2022-09-07T07:07:09.304Z,19.55
2022-09-07T07:09:36.513Z,19.56
2022-09-07T07:12:03.502Z,19.65
2022-09-07T07:14:33.795Z,19.85
2022-09-07T07:17:02.482Z,20.10
2022-09-07T07:19:29.417Z,20.25
2022-09-07T07:24:43.525Z,20.19
2022-09-07T07:27:10.358Z,20.27
2022-09-07T07:29:37.162Z,20.30
2022-09-07T07:32:04.434Z,20.31
2022-09-07T07:34:32.101Z,20.28
2022-09-07T07:36:59.022Z,20.20
2022-09-07T07:42:14.059Z,20.04
2022-09-07T07:44:41.007Z,20.10
2022-09-07T07:47:07.802Z,20.43
2022-09-07T07:49:34.510Z,20.67
2022-09-07T07:54:48.958Z,20.87
2022-09-07T07:57:19.226Z,20.88
2022-09-07T07:59:46.316Z,21.05
2022-09-07T08:02:17.092Z,21.19
2022-09-07T08:04:44.548Z,21.51
2022-09-07T08:07:15.176Z,21.50
2022-09-07T08:09:44.626Z,21.50
2022-09-07T08:12:17.003Z,21.56
2022-09-07T08:14:43.919Z,21.46
2022-09-07T08:17:12.767Z,21.57
2022-09-07T08:19:40.413Z,21.80
2022-09-07T08:22:08.774Z,22.00
2022-09-07T08:24:35.759Z,22.15
2022-09-07T08:27:03.627Z,22.08
2022-09-07T08:29:35.027Z,21.95
2022-09-07T08:32:04.562Z,21.78
2022-09-07T08:34:31.911Z,21.62
2022-09-07T08:36:59.030Z,21.72
2022-09-07T08:39:26.114Z,21.53
2022-09-07T08:42:15.811Z,21.34
2022-09-07T08:45:10.815Z,21.28
2022-09-07T08:47:51.551Z,21.29
2022-09-07T08:50:29.132Z,21.56
2022-09-07T08:53:12.703Z,21.53
2022-09-07T08:55:47.358Z,21.71
2022-09-07T08:58:52.768Z,21.90
2022-09-07T09:01:34.599Z,21.84
2022-09-07T09:04:18.822Z,21.93
2022-09-07T09:06:50.831Z,21.86
2022-09-07T09:09:46.061Z,22.03
2022-09-07T09:12:37.915Z,22.22
2022-09-07T09:15:21.214Z,22.34
2022-09-07T09:17:53.503Z,22.20
2022-09-07T09:20:29.140Z,22.18
2022-09-07T09:23:03.317Z,22.23
2022-09-07T09:25:33.892Z,22.44
2022-09-07T09:28:01.772Z,22.38
2022-09-07T09:30:29.192Z,22.44
2022-09-07T09:33:32.983Z,22.40
2022-09-07T09:36:02.615Z,22.27
2022-09-07T09:38:32.049Z,22.31
2022-09-07T09:41:16.206Z,22.47
2022-09-07T09:43:57.352Z,22.49
2022-09-07T09:46:35.541Z,22.49
2022-09-07T09:49:14.618Z,22.55
2022-09-07T09:54:41.147Z,22.53
2022-09-07T09:57:16.450Z,22.54
2022-09-07T10:00:05.476Z,22.58
2022-09-07T10:05:39.649Z,22.55
2022-09-07T10:08:18.201Z,22.58
2022-09-07T10:11:17.176Z,22.78
2022-09-07T10:13:58.035Z,22.78
2022-09-07T10:16:40.588Z,22.77
2022-09-07T10:19:42.640Z,22.83
2022-09-07T10:22:32.211Z,22.91
2022-09-07T10:25:01.009Z,22.88
2022-09-07T10:27:37.549Z,22.91
2022-09-07T10:30:13.526Z,22.97
2022-09-07T10:33:09.179Z,22.96
2022-09-07T10:35:49.402Z,23.13
2022-09-07T10:38:24.995Z,23.32
2022-09-07T10:41:04.450Z,23.56
2022-09-07T10:43:52.752Z,23.73
2022-09-07T10:53:06.481Z,24.00
2022-09-07T10:55:42.910Z,24.16
2022-09-07T10:58:16.683Z,24.25
2022-09-07T11:01:04.199Z,24.47
2022-09-07T11:03:52.467Z,24.81
2022-09-07T11:06:32.340Z,25.12
2022-09-07T11:09:42.197Z,25.22
2022-09-07T11:12:20.309Z,25.34
2022-09-07T11:14:57.117Z,25.41
2022-09-07T11:17:27.855Z,25.59
2022-09-07T11:20:12.877Z,25.69
2022-09-07T11:22:47.780Z,25.69
2022-09-07T11:25:31.564Z,25.55
2022-09-07T11:28:30.953Z,25.36
2022-09-07T11:31:07.466Z,25.00
2022-09-07T11:33:37.766Z,24.58
2022-09-07T11:36:12.492Z,24.42
2022-09-07T11:38:45.618Z,24.48
2022-09-07T11:41:15.344Z,24.61
2022-09-07T11:43:47.229Z,24.68
2022-09-07T11:46:24.993Z,24.68
2022-09-07T11:48:55.735Z,24.86
2022-09-07T11:51:45.375Z,25.10
2022-09-07T11:54:41.354Z,25.37
2022-09-07T11:57:08.182Z,25.27
2022-09-07T11:59:50.134Z,25.30
2022-09-07T12:02:58.366Z,25.66
2022-09-07T12:05:56.960Z,25.37
2022-09-07T12:08:23.777Z,25.36
2022-09-07T12:11:10.654Z,25.44
2022-09-07T12:14:00.528Z,25.69
2022-09-07T12:16:55.162Z,25.92
2022-09-07T12:19:24.955Z,25.89
2022-09-07T12:21:51.924Z,26.01
2022-09-07T12:24:53.752Z,26.69
2022-09-07T12:27:20.848Z,26.56
2022-09-07T12:30:13.531Z,26.52
2022-09-07T12:32:55.288Z,26.75
2022-09-07T12:35:28.831Z,26.89
2022-09-07T12:37:56.730Z,26.97
2022-09-07T12:40:30.032Z,26.88
2022-09-07T12:43:12.378Z,26.67
2022-09-07T12:45:39.206Z,26.71
2022-09-07T12:48:17.530Z,26.74
2022-09-07T12:50:55.738Z,26.65
2022-09-07T12:53:55.504Z,26.30
2022-09-07T12:56:43.879Z,26.17
2022-09-07T12:59:57.357Z,25.63
2022-09-07T13:02:31.222Z,25.54
2022-09-07T13:05:25.944Z,25.81
2022-09-07T13:08:18.668Z,25.98
2022-09-07T13:10:47.170Z,26.08
2022-09-07T13:17:15.901Z,26.44
2022-09-07T13:19:52.086Z,26.50
2022-09-07T13:22:30.974Z,26.09
2022-09-07T13:25:00.421Z,25.92
2022-09-07T13:27:48.239Z,25.71
2022-09-07T13:30:15.510Z,25.82
2022-09-07T13:35:32.184Z,25.80
2022-09-07T13:38:03.810Z,25.74
2022-09-07T13:40:39.591Z,25.59
2022-09-07T13:43:19.068Z,25.68
2022-09-07T13:45:54.903Z,26.16
2022-09-07T13:48:44.108Z,26.31
2022-09-07T13:51:38.821Z,26.38
2022-09-07T13:54:26.948Z,26.36
2022-09-07T13:57:22.409Z,26.40
2022-09-07T13:59:51.562Z,26.72
2022-09-07T14:02:33.711Z,27.20
2022-09-07T14:05:01.202Z,27.38
2022-09-07T14:07:30.781Z,27.26
2022-09-07T14:10:09.470Z,27.11
2022-09-07T14:12:49.036Z,27.00
2022-09-07T14:15:29.033Z,26.78
2022-09-07T14:18:05.211Z,26.84
2022-09-07T14:20:38.203Z,26.87
2022-09-07T14:23:21.148Z,26.95
2022-09-07T14:28:39.490Z,26.70
2022-09-07T14:31:11.615Z,26.70
2022-09-07T14:33:43.635Z,26.56
2022-09-07T14:36:39.314Z,26.70
2022-09-07T14:39:04.306Z,26.86
2022-09-07T14:41:34.265Z,26.92
2022-09-07T14:44:01.972Z,26.90
2022-09-07T14:46:34.213Z,26.86
2022-09-07T14:49:22.119Z,26.89
2022-09-07T14:51:49.901Z,27.05
2022-09-07T14:54:22.485Z,26.99
2022-09-07T14:57:19.817Z,26.86
2022-09-07T14:59:48.375Z,26.44
2022-09-07T15:02:24.505Z,26.46
2022-09-07T15:05:15.335Z,26.67
2022-09-07T15:07:47.220Z,26.80
2022-09-07T15:10:23.711Z,26.98
2022-09-07T15:12:56.434Z,27.08
2022-09-07T15:15:29.361Z,27.06
2022-09-07T15:18:03.069Z,27.05
2022-09-07T15:20:40.009Z,27.03
2022-09-07T15:23:18.190Z,27.03
2022-09-07T15:25:51.158Z,26.86
2022-09-07T15:34:15.788Z,26.67
2022-09-07T15:36:51.029Z,26.75
2022-09-07T15:39:24.981Z,26.76
2022-09-07T15:41:52.523Z,26.73
2022-09-07T15:44:24.986Z,26.42
2022-09-07T15:49:47.422Z,26.22
2022-09-07T15:52:17.620Z,26.12
2022-09-07T15:54:44.635Z,26.14
2022-09-07T15:59:58.656Z,26.05
2022-09-07T16:05:13.574Z,25.56
2022-09-07T16:10:31.157Z,25.32
2022-09-07T16:13:03.085Z,25.28
2022-09-07T16:15:49.107Z,25.26
2022-09-07T16:18:17.798Z,25.31
2022-09-07T16:20:45.323Z,25.22
2022-09-07T16:23:15.151Z,25.09
2022-09-07T16:25:43.374Z,25.09
2022-09-07T16:28:10.911Z,25.13
2022-09-07T16:30:40.937Z,25.14
2022-09-07T16:33:08.455Z,25.01
2022-09-07T16:35:35.691Z,24.95
2022-09-07T16:40:51.181Z,25.08
2022-09-07T16:43:18.063Z,25.05
2022-09-07T16:48:35.107Z,24.88
2022-09-07T16:51:03.502Z,24.86
2022-09-07T16:53:32.184Z,24.86
2022-09-07T16:56:03.624Z,24.72
2022-09-07T16:58:35.725Z,24.52
2022-09-07T17:01:03.830Z,24.37
2022-09-07T17:03:30.860Z,24.25
2022-09-07T17:06:00.644Z,24.11
2022-09-07T17:08:27.927Z,23.95
2022-09-07T17:11:03.139Z,23.86
2022-09-07T17:13:34.477Z,23.77
2022-09-07T17:16:21.746Z,23.58
2022-09-07T17:21:39.307Z,23.14
2022-09-07T17:24:07.957Z,22.96
2022-09-07T17:26:34.828Z,22.87
2022-09-07T17:29:02.146Z,22.83
2022-09-07T17:34:19.923Z,22.73
2022-09-07T17:36:47.749Z,22.55
2022-09-07T17:39:17.712Z,22.41
2022-09-07T17:41:46.389Z,22.31
2022-09-07T17:44:13.603Z,22.17
2022-09-07T17:46:40.765Z,22.04
2022-09-07T17:49:12.489Z,21.95
2022-09-07T17:51:39.700Z,21.88
2022-09-07T17:54:11.458Z,21.80
2022-09-07T17:56:40.280Z,21.68
2022-09-07T18:01:55.401Z,21.48
2022-09-07T18:04:23.341Z,21.38
2022-09-07T18:06:51.025Z,21.27
2022-09-07T18:09:19.802Z,21.18
2022-09-07T18:11:48.670Z,21.12
2022-09-07T18:14:17.142Z,21.07
2022-09-07T18:16:46.072Z,21.03
2022-09-07T18:19:14.129Z,20.97
2022-09-07T18:21:42.943Z,20.97
2022-09-07T18:24:19.733Z,20.95
2022-09-07T18:26:52.432Z,20.89
2022-09-07T18:29:29.548Z,20.86
2022-09-07T18:31:59.246Z,20.76
2022-09-07T18:34:28.750Z,20.70
2022-09-07T18:36:56.080Z,20.61
2022-09-07T18:39:22.860Z,20.56
2022-09-07T18:41:50.062Z,20.54
2022-09-07T18:47:05.371Z,20.45
2022-09-07T18:49:32.667Z,20.35
2022-09-07T18:54:46.547Z,20.29
2022-09-07T18:57:13.326Z,20.25
2022-09-07T18:59:40.977Z,20.22
2022-09-07T19:02:09.684Z,20.19
2022-09-07T19:07:29.005Z,20.13
2022-09-07T19:09:56.697Z,20.09
2022-09-07T19:12:24.558Z,20.07
2022-09-07T19:14:51.740Z,20.07
2022-09-07T19:17:19.324Z,20.07
2022-09-07T19:19:46.193Z,20.09
2022-09-07T19:22:13.154Z,20.05
2022-09-07T19:24:40.769Z,20.03
2022-09-07T19:27:07.599Z,20.02
2022-09-07T19:29:34.524Z,20.03
2022-09-07T19:32:04.816Z,20.02
2022-09-07T19:34:39.737Z,19.99
2022-09-07T19:37:08.475Z,19.96
2022-09-07T19:39:35.424Z,19.94
2022-09-07T19:42:04.502Z,19.96
2022-09-07T19:44:31.904Z,19.98
2022-09-07T19:47:00.175Z,19.95
2022-09-07T19:49:28.440Z,19.92
2022-09-07T19:51:55.528Z,19.93
2022-09-07T19:54:22.587Z,19.95
2022-09-07T19:56:49.625Z,19.94
2022-09-07T19:59:19.296Z,19.97
2022-09-07T20:01:48.296Z,19.96
2022-09-07T20:04:20.567Z,19.96
2022-09-07T20:06:50.262Z,19.98
2022-09-07T20:09:18.724Z,19.97
2022-09-07T20:11:47.944Z,19.97
2022-09-07T20:14:16.104Z,19.95
2022-09-07T20:16:43.185Z,19.93
2022-09-07T20:19:15.004Z,19.94
2022-09-07T20:21:42.458Z,19.91
2022-09-07T20:24:11.654Z,19.89
2022-09-07T20:26:38.678Z,19.88
2022-09-07T20:31:53.759Z,19.85
2022-09-07T20:34:20.738Z,19.84
2022-09-07T20:36:50.104Z,19.78
2022-09-07T20:39:17.560Z,19.79
2022-09-07T20:41:44.548Z,19.82
2022-09-07T20:44:11.737Z,19.80
2022-09-07T20:46:39.291Z,19.77
2022-09-07T20:49:06.339Z,19.78
2022-09-07T20:51:33.289Z,19.76
2022-09-07T20:54:00.218Z,19.76
2022-09-07T20:56:28.894Z,19.73
2022-09-07T20:58:57.861Z,19.74
2022-09-07T21:01:24.958Z,19.70
2022-09-07T21:03:54.791Z,19.67
2022-09-07T21:06:22.992Z,19.65
2022-09-07T21:08:50.765Z,19.63
2022-09-07T21:11:23.851Z,19.58
2022-09-07T21:14:00.907Z,19.53
2022-09-07T21:16:28.858Z,19.49
2022-09-07T21:18:58.264Z,19.42
2022-09-07T21:21:27.440Z,19.38
2022-09-07T21:23:56.739Z,19.34
2022-09-07T21:26:24.287Z,19.29
2022-09-07T21:28:55.419Z,19.24
2022-09-07T21:31:22.601Z,19.20
2022-09-07T21:33:54.489Z,19.15
2022-09-07T21:36:22.007Z,19.10
2022-09-07T21:38:49.059Z,19.06
2022-09-07T21:41:17.759Z,19.00
2022-09-07T21:43:44.724Z,19.01
2022-09-07T21:46:14.603Z,18.98
2022-09-07T21:48:41.437Z,18.95
2022-09-07T21:51:09.073Z,18.91
2022-09-07T21:53:37.223Z,18.86
2022-09-07T21:56:06.791Z,18.86
2022-09-07T21:58:33.788Z,18.84
2022-09-07T22:01:10.909Z,18.83
2022-09-07T22:03:39.233Z,18.80
2022-09-07T22:06:07.311Z,18.77
2022-09-07T22:08:35.946Z,18.73
2022-09-07T22:11:08.150Z,18.73
2022-09-07T22:13:35.671Z,18.74
2022-09-07T22:16:03.778Z,18.72
2022-09-07T22:18:31.090Z,18.70
2022-09-07T22:21:09.565Z,18.68
2022-09-07T22:23:39.699Z,18.67
2022-09-07T22:26:07.505Z,18.66
2022-09-07T22:28:35.350Z,18.64
2022-09-07T22:31:10.631Z,18.62
2022-09-07T22:33:37.920Z,18.59
2022-09-07T22:36:29.147Z,18.59
2022-09-07T22:38:58.326Z,18.62
2022-09-07T22:41:30.561Z,18.64
2022-09-07T22:43:58.102Z,18.68
2022-09-07T22:46:28.137Z,18.72
2022-09-07T22:48:57.225Z,18.70
2022-09-07T22:51:26.836Z,18.67
2022-09-07T22:53:54.855Z,18.72
2022-09-07T22:56:25.067Z,18.76
2022-09-07T22:58:59.409Z,18.80
2022-09-07T23:01:27.672Z,18.76
2022-09-07T23:03:55.461Z,18.73
2022-09-07T23:06:26.011Z,18.65
2022-09-07T23:08:54.921Z,18.60
2022-09-07T23:11:22.678Z,18.54
2022-09-07T23:13:54.579Z,18.48
2022-09-07T23:16:21.980Z,18.45
2022-09-07T23:18:49.234Z,18.44
2022-09-07T23:21:16.155Z,18.43
2022-09-07T23:23:43.158Z,18.48
2022-09-07T23:26:10.054Z,18.48
2022-09-07T23:28:37.012Z,18.48
2022-09-07T23:31:03.985Z,18.49
2022-09-07T23:33:31.804Z,18.50
2022-09-07T23:36:04.735Z,18.52
2022-09-07T23:38:32.526Z,18.55
2022-09-07T23:41:00.463Z,18.57
2022-09-07T23:43:30.192Z,18.55
2022-09-07T23:45:59.035Z,18.54
2022-09-07T23:48:25.979Z,18.55
2022-09-07T23:50:53.388Z,18.52
2022-09-07T23:53:22.019Z,18.53
2022-09-07T23:55:53.138Z,18.54
2022-09-07T23:58:23.410Z,18.53
